createdAt,value
2023-01-07T00:08:48.394Z,9.42
2023-01-07T00:18:49.689Z,9.47
2023-01-07T00:28:51.018Z,9.34
2023-01-07T00:38:52.394Z,9.28
2023-01-07T00:48:53.676Z,9.29
2023-01-07T00:58:54.925Z,9.25
2023-01-07T01:08:56.198Z,9.24
2023-01-07T01:18:57.475Z,9.22
2023-01-07T01:28:58.743Z,9.23
2023-01-07T01:39:00.013Z,9.21
2023-01-07T01:49:01.339Z,9.18
2023-01-07T01:59:02.604Z,9.16
2023-01-07T02:09:03.902Z,9.16
2023-01-07T02:19:05.178Z,9.13
2023-01-07T02:29:06.425Z,9.10
2023-01-07T02:39:07.696Z,9.07
2023-01-07T02:49:09.532Z,9.05
2023-01-07T02:59:10.835Z,9.06
2023-01-07T03:09:12.121Z,9.07
2023-01-07T03:19:13.423Z,9.08
2023-01-07T03:29:14.709Z,9.07
2023-01-07T03:39:15.974Z,9.05
2023-01-07T03:49:17.272Z,9.05
2023-01-07T03:59:18.559Z,9.02
2023-01-07T04:09:21.880Z,8.96
2023-01-07T04:19:23.195Z,8.92
2023-01-07T04:29:24.497Z,8.94
2023-01-07T04:39:25.779Z,8.93
2023-01-07T04:49:27.061Z,8.93
2023-01-07T04:59:28.321Z,8.78
2023-01-07T05:09:29.597Z,8.78
2023-01-07T05:19:30.852Z,8.76
2023-01-07T05:29:32.145Z,8.76
2023-01-07T05:39:33.469Z,8.75
2023-01-07T05:49:34.750Z,8.66
2023-01-07T05:59:36.053Z,8.65
2023-01-07T06:09:37.340Z,8.60
2023-01-07T06:19:38.723Z,8.62
2023-01-07T06:29:39.959Z,8.61
2023-01-07T06:39:41.218Z,8.60
2023-01-07T06:49:42.502Z,8.63
2023-01-07T06:59:43.915Z,8.66
2023-01-07T07:09:45.239Z,8.65
2023-01-07T07:19:46.550Z,8.72
2023-01-07T07:29:47.798Z,8.78
2023-01-07T07:39:49.062Z,8.81
2023-01-07T07:49:51.135Z,8.85
2023-01-07T07:59:52.388Z,8.88
2023-01-07T08:09:53.712Z,8.89
2023-01-07T08:19:55.036Z,8.93
2023-01-07T08:29:56.345Z,9.03
2023-01-07T08:39:57.681Z,9.13
2023-01-07T08:49:58.994Z,9.27
2023-01-07T09:00:00.263Z,9.38
2023-01-07T09:10:01.658Z,9.55
2023-01-07T09:20:03.788Z,9.68
2023-01-07T09:30:05.182Z,9.90
2023-01-07T09:40:06.521Z,9.99
2023-01-07T09:50:07.773Z,10.08
2023-01-07T10:00:09.035Z,10.30
2023-01-07T10:10:10.361Z,10.50
2023-01-07T10:20:11.866Z,10.70
2023-01-07T10:30:13.106Z,10.79
2023-01-07T10:40:14.343Z,10.89
2023-01-07T10:50:15.604Z,10.95
2023-01-07T11:00:16.886Z,11.16
2023-01-07T11:10:18.277Z,11.17
2023-01-07T11:20:19.785Z,11.21
2023-01-07T11:30:21.050Z,11.49
2023-01-07T11:40:23.514Z,11.87
2023-01-07T11:50:24.793Z,11.85
2023-01-07T12:00:26.284Z,11.78
2023-01-07T12:10:27.550Z,12.01
2023-01-07T12:20:28.986Z,12.09
2023-01-07T12:30:30.289Z,12.00
2023-01-07T12:40:32.077Z,11.97
2023-01-07T12:50:33.325Z,12.01
2023-01-07T13:00:34.584Z,12.04
2023-01-07T13:10:35.967Z,12.11
2023-01-07T13:20:37.348Z,12.12
2023-01-07T13:30:38.811Z,12.09
2023-01-07T13:40:40.086Z,11.95
2023-01-07T13:50:41.347Z,11.94
2023-01-07T14:00:42.816Z,11.89
2023-01-07T14:10:44.133Z,11.81
2023-01-07T14:20:45.460Z,11.64
2023-01-07T14:30:46.829Z,11.59
2023-01-07T14:40:48.157Z,11.59
2023-01-07T14:50:49.426Z,11.42
2023-01-07T15:00:50.847Z,11.15
2023-01-07T15:11:10.948Z,10.98
2023-01-07T15:21:12.352Z,10.79
2023-01-07T15:31:13.765Z,10.54
2023-01-07T15:41:15.108Z,10.17
2023-01-07T15:51:16.427Z,9.68
2023-01-07T16:01:17.842Z,9.23
2023-01-07T16:11:19.136Z,8.84
2023-01-07T16:21:20.388Z,8.52
2023-01-07T16:31:21.733Z,8.29
2023-01-07T16:41:23.002Z,8.00
2023-01-07T16:51:24.283Z,7.77
2023-01-07T17:01:25.738Z,7.58
2023-01-07T17:11:27.108Z,7.51
2023-01-07T17:21:28.409Z,7.24
2023-01-07T17:31:29.694Z,7.02
2023-01-07T17:41:49.897Z,6.85
2023-01-07T17:51:53.849Z,6.62
2023-01-07T18:01:56.979Z,6.48
2023-01-07T18:12:17.135Z,6.31
2023-01-07T18:22:18.794Z,6.19
2023-01-07T18:32:20.339Z,6.08
2023-01-07T18:42:21.671Z,5.92
2023-01-07T18:52:22.984Z,5.75
2023-01-07T19:02:24.237Z,5.67
2023-01-07T19:12:25.558Z,5.56
2023-01-07T19:22:26.861Z,5.45
2023-01-07T19:32:28.122Z,5.32
2023-01-07T19:42:29.412Z,5.38
2023-01-07T19:52:30.690Z,5.29
2023-01-07T20:02:32.108Z,5.26
2023-01-07T20:12:33.473Z,5.25
2023-01-07T20:22:34.778Z,5.15
2023-01-07T20:32:36.173Z,5.02
2023-01-07T20:42:37.543Z,4.98
2023-01-07T20:52:39.040Z,4.88
2023-01-07T21:02:40.925Z,4.79
2023-01-07T21:12:43.191Z,4.99
2023-01-07T21:22:46.334Z,5.22
2023-01-07T21:32:48.810Z,5.42
2023-01-07T21:42:50.111Z,5.62
2023-01-07T21:52:51.370Z,5.76
2023-01-07T22:02:52.644Z,5.95
2023-01-07T22:12:53.915Z,6.10
2023-01-07T22:22:55.377Z,6.27
2023-01-07T22:32:56.632Z,6.39
2023-01-07T22:42:57.863Z,6.51
2023-01-07T22:52:59.190Z,6.52
2023-01-07T23:03:00.537Z,6.60
2023-01-07T23:13:01.822Z,6.67
2023-01-07T23:23:03.125Z,6.72
2023-01-07T23:33:04.428Z,6.80
2023-01-07T23:43:05.689Z,6.75
2023-01-07T23:53:06.936Z,6.96
